Time;durP1;ratioP1;P1;durP2;ratioP2;P2;SDS_P1;SDS_P2;PMS_P1;PMS_P2;Temp;Humidity;BMP_temperature;BMP_pressure;BME280_temperature;BME280_humidity;BME280_pressure;Samples;Min_cycle;Max_cycle;Signal;HPM_P1;HPM_P2
2022/03/21 00:05:19;;;;;;;31.87;15.03;;;;;;;4.88;37.00;101488.57;4332185;82;44111;-73
2022/03/21 00:11:21;;;;;;;39.55;18.20;;;;;;;4.71;37.16;101482.04;4337902;82;44504;-73
2022/03/21 00:17:22;;;;;;;40.98;17.17;;;;;;;4.66;36.94;101485.09;4346794;80;44457;-74
2022/03/21 00:23:26;;;;;;;39.83;17.32;;;;;;;4.60;36.90;101484.28;4431065;79;44496;-75
2022/03/21 00:29:27;;;;;;;45.83;19.75;;;;;;;4.58;36.79;101477.77;4372011;81;43773;-73
2022/03/21 00:35:29;;;;;;;37.40;17.30;;;;;;;4.54;36.93;101476.33;4375880;81;44426;-74
2022/03/21 00:41:32;;;;;;;40.10;17.37;;;;;;;4.61;36.82;101469.98;4361040;80;44475;-73
2022/03/21 00:47:33;;;;;;;38.23;16.10;;;;;;;4.46;36.81;101467.66;4401549;79;44539;-74
2022/03/21 00:53:35;;;;;;;39.30;17.48;;;;;;;4.27;37.76;101467.53;4339915;80;44420;-73
2022/03/21 00:59:36;;;;;;;38.67;16.10;;;;;;;4.15;37.89;101462.74;4372980;81;44444;-74
2022/03/21 01:05:38;;;;;;;40.12;16.87;;;;;;;3.94;38.44;101467.56;4379693;81;44524;-73
2022/03/21 01:11:39;;;;;;;39.30;16.57;;;;;;;4.13;38.38;101462.89;4391581;79;44474;-73
2022/03/21 01:17:42;;;;;;;46.08;20.15;;;;;;;4.05;38.49;101461.35;4388636;79;43752;-73
2022/03/21 01:23:43;;;;;;;44.50;19.27;;;;;;;3.88;38.49;101454.28;4396461;80;43773;-74
2022/03/21 01:29:44;;;;;;;37.08;17.42;;;;;;;4.23;37.95;101447.48;4385369;79;44478;-73
2022/03/21 01:35:46;;;;;;;40.73;17.40;;;;;;;4.17;38.21;101448.34;4404152;79;44491;-73
2022/03/21 01:41:47;;;;;;;33.45;14.93;;;;;;;4.22;38.05;101451.08;4406937;79;44281;-72
2022/03/21 01:47:49;;;;;;;41.15;17.25;;;;;;;4.25;38.00;101437.53;4396059;81;44414;-74
2022/03/21 02:00:14;;;;;;;43.45;19.05;;;;;;;4.10;38.79;101441.83;4399184;80;43733;-73
2022/03/21 02:06:17;;;;;;;43.87;20.05;;;;;;;4.19;38.78;101445.05;4340701;80;43769;-73
2022/03/21 02:12:18;;;;;;;41.05;18.30;;;;;;;4.14;38.46;101445.94;4353267;81;43663;-73
2022/03/21 02:18:22;;;;;;;49.18;21.60;;;;;;;4.18;39.72;101447.86;4393001;81;44419;-73
2022/03/21 02:24:50;;;;;;;44.77;19.90;;;;;;;4.27;38.49;101443.09;4351104;81;43729;-73
2022/03/21 02:30:53;;;;;;;44.27;19.57;;;;;;;4.28;38.55;101439.92;4398768;79;43716;-74
2022/03/21 02:37:00;;;;;;;47.40;19.75;;;;;;;3.93;40.06;101445.08;4415441;80;43734;-73
2022/03/21 02:43:01;;;;;;;50.28;20.90;;;;;;;3.99;38.99;101450.73;4441033;80;44453;-73
2022/03/21 02:49:02;;;;;;;56.30;23.07;;;;;;;3.73;39.74;101456.39;4421193;80;44118;-73
2022/03/21 02:55:05;;;;;;;50.88;21.40;;;;;;;3.83;39.17;101459.63;4438818;80;44445;-73
2022/03/21 03:01:14;;;;;;;59.85;23.87;;;;;;;3.89;39.16;101457.30;4413712;80;44134;-73
2022/03/21 03:07:16;;;;;;;50.05;21.17;;;;;;;3.80;39.17;101456.75;4429902;80;44469;-73
2022/03/21 03:13:17;;;;;;;50.00;21.80;;;;;;;3.93;39.43;101455.73;4420143;80;44488;-73
2022/03/21 03:19:20;;;;;;;57.65;22.17;;;;;;;3.78;39.34;101458.67;4418572;80;44105;-73
2022/03/21 03:25:23;;;;;;;54.35;22.13;;;;;;;3.74;39.16;101451.42;4431705;80;44122;-72
2022/03/21 03:31:24;;;;;;;54.55;22.98;;;;;;;3.87;38.78;101460.58;4370682;80;44123;-73
2022/03/21 03:37:26;;;;;;;46.10;20.20;;;;;;;3.80;39.17;101455.89;4369099;81;43866;-73
2022/03/21 03:43:27;;;;;;;48.45;20.82;;;;;;;3.84;38.87;101462.17;4390220;80;43790;-73
2022/03/21 03:49:28;;;;;;;50.45;21.73;;;;;;;3.88;38.75;101458.27;4401840;80;44444;-73
2022/03/21 03:55:29;;;;;;;49.88;21.55;;;;;;;3.94;38.36;101464.07;4336547;79;44478;-72
2022/03/21 04:01:31;;;;;;;54.08;20.90;;;;;;;3.99;38.66;101453.87;4403197;79;44124;-72
2022/03/21 04:07:32;;;;;;;52.55;21.50;;;;;;;3.84;38.78;101463.50;4381015;80;44025;-72
2022/03/21 04:13:33;;;;;;;51.88;21.85;;;;;;;3.87;38.76;101463.73;4391908;81;43875;-73
2022/03/21 04:19:35;;;;;;;51.40;21.00;;;;;;;3.75;39.08;101466.91;4380788;81;43998;-72
2022/03/21 04:25:36;;;;;;;44.48;20.20;;;;;;;3.94;39.04;101461.41;4382980;81;43765;-71
2022/03/21 04:31:37;;;;;;;46.45;21.30;;;;;;;3.63;39.84;101464.30;4388711;81;43787;-71
2022/03/21 04:37:40;;;;;;;48.42;20.57;;;;;;;3.70;39.90;101465.97;4403911;81;43767;-72
2022/03/21 04:43:41;;;;;;;49.73;21.00;;;;;;;3.35;40.17;101467.03;4396921;80;44466;-73
2022/03/21 04:49:42;;;;;;;47.35;21.12;;;;;;;3.27;40.41;101476.10;4396504;81;44249;-72
2022/03/21 04:55:44;;;;;;;52.48;21.30;;;;;;;3.08;41.07;101474.91;4376918;79;43992;-72
2022/03/21 05:01:45;;;;;;;52.45;21.60;;;;;;;2.97;41.89;101480.23;4353529;80;43984;-72
2022/03/21 05:07:52;;;;;;;49.50;20.70;;;;;;;2.91;41.97;101478.90;4372984;81;44095;-73
2022/03/21 05:13:50;;;;;;;49.45;20.37;;;;;;;2.99;41.79;101487.13;4381414;79;44111;-72
2022/03/21 05:19:52;;;;;;;45.28;19.92;;;;;;;2.83;42.62;101486.62;4386243;79;43748;-72
2022/03/21 05:32:13;;;;;;;41.00;17.55;;;;;;;3.02;43.57;101497.97;4366481;79;44426;-72
2022/03/21 05:38:14;;;;;;;37.45;15.85;;;;;;;3.17;43.21;101499.44;4427878;79;44512;-72
2022/03/21 05:44:16;;;;;;;46.08;20.27;;;;;;;3.15;44.41;101495.20;4432220;79;43763;-76
2022/03/21 05:50:17;;;;;;;44.95;19.17;;;;;;;3.42;42.71;101503.28;4435249;78;43799;-77
2022/03/21 05:56:20;;;;;;;49.88;21.80;;;;;;;3.55;42.22;101508.47;4436785;78;43763;-83
2022/03/21 06:02:22;;;;;;;52.62;22.10;;;;;;;3.98;40.77;101514.73;4375752;80;44104;-78
2022/03/21 06:08:24;;;;;;;58.80;23.65;;;;;;;4.29;40.31;101519.70;4381288;80;44130;-78
2022/03/21 06:14:26;;;;;;;53.50;22.58;;;;;;;4.64;39.75;101522.17;4399158;80;44094;-75
2022/03/21 06:20:28;;;;;;;58.28;24.07;;;;;;;4.70;39.66;101517.16;4458593;80;44118;-76
2022/03/21 06:26:29;;;;;;;52.60;23.50;;;;;;;4.95;39.17;101520.88;4392182;81;44158;-79
2022/03/21 06:32:30;;;;;;;55.83;24.07;;;;;;;5.06;38.74;101517.28;4393801;80;44113;-71
2022/03/21 06:38:32;;;;;;;51.55;23.22;;;;;;;5.15;38.48;101517.31;4414466;80;28445;-75
2022/03/21 06:44:33;;;;;;;53.42;22.45;;;;;;;5.35;38.01;101520.05;4394024;81;44075;-76
2022/03/21 06:50:34;;;;;;;56.53;23.35;;;;;;;5.48;37.99;101514.95;4374799;80;44142;-75
2022/03/21 06:56:36;;;;;;;51.25;21.87;;;;;;;5.68;37.25;101511.86;4390590;79;43619;-76
2022/03/21 07:02:37;;;;;;;46.45;18.50;;;;;;;5.55;37.12;101522.27;4401641;80;43735;-76
2022/03/21 07:08:39;;;;;;;51.65;22.67;;;;;;;5.76;37.18;101516.00;4427443;80;43760;-77
2022/03/21 07:14:40;;;;;;;51.18;22.25;;;;;;;6.16;36.44;101516.06;4412195;80;43568;-77
2022/03/21 07:20:43;;;;;;;48.90;22.07;;;;;;;6.52;36.08;101513.66;4405235;80;28448;-77
2022/03/21 07:26:44;;;;;;;50.23;22.90;;;;;;;6.54;35.98;101518.36;4322604;80;28547;-76
2022/03/21 07:32:46;;;;;;;47.05;21.10;;;;;;;6.74;35.97;101524.48;4355471;80;28519;-76
2022/03/21 07:38:48;;;;;;;54.18;23.18;;;;;;;6.65;36.23;101524.87;4429043;80;28549;-75
2022/03/21 07:51:07;;;;;;;60.48;22.67;;;;;;;7.17;35.38;101523.59;4282301;81;28558;-75
2022/03/21 07:57:09;;;;;;;46.18;21.45;;;;;;;7.53;35.14;101528.20;4421265;80;28564;-75
2022/03/21 08:03:16;;;;;;;50.83;20.62;;;;;;;7.71;34.92;101530.91;4404350;80;28543;-76
2022/03/21 08:09:17;;;;;;;42.38;19.70;;;;;;;8.09;34.57;101520.92;4423037;80;28510;-75
2022/03/21 08:15:18;;;;;;;42.65;18.67;;;;;;;8.14;34.48;101524.96;4429556;80;28476;-76
2022/03/21 08:21:20;;;;;;;40.75;18.77;;;;;;;8.38;33.63;101517.63;4404645;80;28518;-76
2022/03/21 08:27:21;;;;;;;37.23;17.80;;;;;;;8.58;33.46;101510.26;4429189;80;28546;-76
2022/03/21 08:33:22;;;;;;;34.73;16.42;;;;;;;8.97;33.45;101498.77;4415192;80;28495;-76
2022/03/21 08:39:23;;;;;;;40.20;19.15;;;;;;;9.05;33.06;101498.81;4427524;80;28474;-75
2022/03/21 08:45:25;;;;;;;38.85;16.65;;;;;;;9.02;33.08;101497.28;4414531;80;28459;-76
2022/03/21 08:51:26;;;;;;;37.98;17.87;;;;;;;8.93;32.68;101491.53;4430153;80;28516;-80
2022/03/21 08:57:28;;;;;;;36.30;15.70;;;;;;;9.66;32.22;101490.63;4406416;80;28525;-75
2022/03/21 09:03:29;;;;;;;35.40;15.85;;;;;;;9.89;31.83;101489.99;4380497;80;28522;-75
2022/03/21 09:09:30;;;;;;;26.80;13.88;;;;;;;10.06;31.97;101492.70;4382973;80;28448;-76
2022/03/21 09:15:32;;;;;;;36.13;16.75;;;;;;;10.40;31.29;101476.89;4362134;80;28469;-76
2022/03/21 09:21:33;;;;;;;34.43;15.93;;;;;;;10.31;31.31;101486.31;4378259;80;28535;-75
2022/03/21 09:27:38;;;;;;;35.68;15.90;;;;;;;10.49;31.33;101479.94;4364273;81;28452;-75
2022/03/21 09:33:39;;;;;;;34.58;16.15;;;;;;;10.80;30.69;101476.52;4365766;81;28497;-74
2022/03/21 09:39:41;;;;;;;31.23;15.20;;;;;;;10.92;30.65;101476.96;4376515;81;28496;-75
2022/03/21 09:45:42;;;;;;;30.05;14.07;;;;;;;11.13;30.11;101468.31;4373842;80;28447;-77
2022/03/21 09:51:46;;;;;;;21.57;11.48;;;;;;;11.34;29.53;101457.45;4372790;80;28508;-79
2022/03/21 09:57:47;;;;;;;22.95;10.53;;;;;;;11.48;28.59;101453.16;4389873;80;28576;-79
2022/03/21 10:03:48;;;;;;;18.52;8.73;;;;;;;11.46;27.99;101451.66;4372213;81;28505;-80
2022/03/21 10:10:12;;;;;;;24.27;11.80;;;;;;;11.85;28.11;101439.94;4378027;80;28453;-76
2022/03/21 10:16:16;;;;;;;25.52;12.37;;;;;;;12.25;28.47;101443.34;4391532;79;29013;-77
2022/03/21 10:22:24;;;;;;;20.00;11.00;;;;;;;12.27;28.47;101428.30;4333841;80;28528;-78
2022/03/21 10:28:37;;;;;;;21.25;9.93;;;;;;;12.60;28.54;101414.99;4369975;81;28457;-76
2022/03/21 10:34:40;;;;;;;19.82;9.25;;;;;;;12.73;28.10;101403.55;4369026;81;28494;-77
2022/03/21 10:40:45;;;;;;;14.10;7.95;;;;;;;13.05;27.75;101391.47;4372948;80;28501;-77
2022/03/21 10:46:53;;;;;;;11.50;6.25;;;;;;;12.86;27.41;101398.31;4341423;80;28562;-78
2022/03/21 10:53:14;;;;;;;12.35;6.70;;;;;;;13.21;26.82;101381.48;4379929;80;28507;-78
2022/03/21 10:59:16;;;;;;;11.00;5.60;;;;;;;13.47;26.32;101385.01;4398084;80;28514;-77
2022/03/21 11:05:20;;;;;;;11.70;5.87;;;;;;;13.33;26.31;101373.69;4412934;79;28503;-74
2022/03/21 11:11:22;;;;;;;6.83;3.50;;;;;;;13.72;25.51;101371.62;4386903;79;28569;-76
2022/03/21 11:17:24;;;;;;;7.95;3.83;;;;;;;13.50;24.32;101362.17;4374386;80;28553;-73
2022/03/21 11:23:26;;;;;;;7.50;4.12;;;;;;;14.02;23.69;101355.22;4388956;79;28500;-74
2022/03/21 11:30:09;;;;;;;6.87;4.22;;;;;;;14.72;24.87;101335.41;4406865;79;28498;-73
2022/03/21 11:36:12;;;;;;;5.72;3.17;;;;;;;15.11;24.51;101334.41;4387660;81;28558;-74
2022/03/21 11:42:17;;;;;;;8.90;3.65;;;;;;;14.67;22.54;101330.59;4388541;79;28586;-76
2022/03/21 11:48:24;;;;;;;8.18;4.50;;;;;;;14.57;22.98;101323.37;4356568;79;28577;-73
2022/03/21 11:54:36;;;;;;;7.53;4.10;;;;;;;14.74;23.25;101311.19;4411562;79;28508;-76
2022/03/21 12:01:00;;;;;;;8.50;4.17;;;;;;;14.91;23.00;101302.17;4371626;80;28607;-77
2022/03/21 12:07:15;;;;;;;7.35;3.83;;;;;;;15.22;23.06;101290.98;4327725;80;28475;-76
2022/03/21 12:13:19;;;;;;;7.83;3.80;;;;;;;14.89;23.02;101292.07;4385551;79;28474;-75
2022/03/21 12:19:20;;;;;;;8.45;4.12;;;;;;;15.16;23.03;101280.45;4383233;79;28494;-75
2022/03/21 12:25:36;;;;;;;10.45;3.98;;;;;;;15.35;22.38;101269.30;4369517;80;28468;-75
2022/03/21 12:31:38;;;;;;;7.33;3.80;;;;;;;15.57;23.04;101260.95;4366092;81;28483;-75
2022/03/21 12:37:44;;;;;;;7.25;4.17;;;;;;;15.07;21.75;101256.77;4386041;81;28551;-75
2022/03/21 12:43:52;;;;;;;7.08;4.30;;;;;;;15.60;22.04;101253.23;4391989;80;28485;-75
2022/03/21 12:49:54;;;;;;;7.55;4.40;;;;;;;15.70;22.03;101243.84;4388950;80;28614;-75
2022/03/21 12:56:04;;;;;;;7.00;3.47;;;;;;;15.64;22.23;101237.38;4398662;80;28545;-75
2022/03/21 13:02:06;;;;;;;8.58;3.87;;;;;;;15.75;21.09;101241.31;4423960;80;28508;-75
2022/03/21 13:14:30;;;;;;;7.08;3.60;;;;;;;16.16;20.94;101221.19;4413669;80;28543;-75
2022/03/21 13:20:35;;;;;;;6.33;3.75;;;;;;;16.10;20.50;101211.22;4408147;80;28456;-75
2022/03/21 13:26:37;;;;;;;7.97;4.37;;;;;;;16.08;20.98;101207.05;4439870;80;28485;-74
2022/03/21 13:32:44;;;;;;;8.45;4.85;;;;;;;15.99;21.21;101201.84;4406277;80;28551;-76
2022/03/21 13:38:45;;;;;;;11.70;5.83;;;;;;;15.80;21.15;101207.63;4396987;80;28482;-76
2022/03/21 13:44:51;;;;;;;10.32;5.20;;;;;;;16.27;21.61;101197.98;4391405;80;28477;-75
2022/03/21 13:50:55;;;;;;;8.30;4.55;;;;;;;16.44;21.41;101193.39;4403317;80;28481;-75
2022/03/21 13:57:06;;;;;;;10.58;5.55;;;;;;;16.40;20.12;101193.02;4419286;80;28501;-75
2022/03/21 14:03:09;;;;;;;8.63;5.20;;;;;;;16.31;20.69;101193.78;4348073;80;28587;-79
2022/03/21 14:09:13;;;;;;;9.23;5.25;;;;;;;16.01;20.78;101175.33;4361084;81;28521;-75
2022/03/21 14:15:17;;;;;;;8.05;4.22;;;;;;;16.56;20.82;101174.54;4385096;81;28482;-75
2022/03/21 14:21:19;;;;;;;8.10;4.72;;;;;;;16.54;19.95;101165.78;4376339;81;28543;-77
2022/03/21 14:27:20;;;;;;;8.00;5.00;;;;;;;16.70;20.50;101164.42;4354796;80;28472;-76
2022/03/21 14:33:22;;;;;;;8.35;4.60;;;;;;;16.42;20.52;101161.56;4369548;81;28472;-77
2022/03/21 14:39:25;;;;;;;9.05;4.28;;;;;;;16.38;19.77;101154.38;4385411;80;28519;-76
2022/03/21 14:45:27;;;;;;;7.15;4.37;;;;;;;16.56;20.25;101153.66;4376849;81;28531;-75
2022/03/21 14:51:35;;;;;;;11.75;5.35;;;;;;;16.42;20.30;101152.06;4390732;79;28561;-77
2022/03/21 14:57:37;;;;;;;9.83;4.83;;;;;;;16.68;20.17;101137.47;4393882;81;28558;-76
2022/03/21 15:03:38;;;;;;;9.50;4.45;;;;;;;16.64;20.22;101134.06;4371305;80;28560;-80
2022/03/21 15:16:00;;;;;;;8.23;4.47;;;;;;;16.51;20.05;101132.30;4376537;79;28515;-79
2022/03/21 15:22:03;;;;;;;8.53;4.28;;;;;;;16.51;20.12;101129.03;4369751;80;28587;-82
2022/03/21 15:28:08;;;;;;;12.03;5.53;;;;;;;16.65;20.37;101127.06;4385489;80;28531;-80
2022/03/21 15:34:10;;;;;;;9.48;4.95;;;;;;;16.49;20.26;101131.14;4376392;80;28528;-82
2022/03/21 15:46:31;;;;;;;12.73;6.60;;;;;;;16.24;20.71;101121.05;4370343;80;28501;-81
2022/03/21 15:52:33;;;;;;;10.63;5.70;;;;;;;16.19;21.03;101131.73;4357725;79;28507;-80
2022/03/21 15:58:35;;;;;;;13.10;6.58;;;;;;;16.35;20.98;101137.18;4377132;79;28652;-79
2022/03/21 16:04:37;;;;;;;14.10;7.20;;;;;;;16.16;21.40;101133.54;4366377;80;28536;-81
2022/03/21 16:10:38;;;;;;;16.15;7.15;;;;;;;15.91;21.79;101141.05;4389620;80;28546;-80
2022/03/21 16:16:41;;;;;;;12.70;7.08;;;;;;;16.02;21.81;101139.01;4370767;80;28513;-79
2022/03/21 16:22:47;;;;;;;19.17;8.00;;;;;;;16.24;21.90;101142.76;4375097;80;28721;-78
2022/03/21 16:28:48;;;;;;;14.65;7.67;;;;;;;15.93;22.24;101138.13;4375378;80;28520;-78
2022/03/21 16:34:51;;;;;;;15.58;8.18;;;;;;;15.61;22.58;101139.67;4388962;80;28551;-79
2022/03/21 16:40:52;;;;;;;14.47;7.72;;;;;;;15.37;22.90;101142.53;4361529;80;28518;-80
2022/03/21 16:46:54;;;;;;;14.98;7.33;;;;;;;15.25;22.91;101141.52;4386679;80;28536;-81
2022/03/21 16:52:56;;;;;;;13.60;7.67;;;;;;;15.40;22.82;101138.03;4385270;80;28517;-81
2022/03/21 16:58:57;;;;;;;13.38;6.50;;;;;;;15.02;23.15;101134.12;4362641;80;28504;-84
2022/03/21 17:04:58;;;;;;;13.08;6.55;;;;;;;14.90;23.18;101142.58;4385197;79;28497;-82
2022/03/21 17:11:00;;;;;;;14.07;6.90;;;;;;;14.66;23.28;101141.28;4390150;79;28507;-82
2022/03/21 17:17:01;;;;;;;15.50;6.78;;;;;;;14.68;23.37;101145.95;4391168;79;28477;-81
2022/03/21 17:23:11;;;;;;;18.82;6.85;;;;;;;14.62;23.51;101155.23;4405589;79;28497;-80
2022/03/21 17:29:14;;;;;;;13.75;7.15;;;;;;;14.38;23.92;101156.64;4388048;79;28552;-81
2022/03/21 17:35:17;;;;;;;19.23;7.83;;;;;;;14.28;24.08;101146.73;4377716;79;28547;-80
2022/03/21 17:41:20;;;;;;;15.63;7.47;;;;;;;14.30;24.17;101158.17;4384248;79;28586;-81
2022/03/21 17:47:23;;;;;;;18.67;8.15;;;;;;;14.14;24.46;101153.45;4394565;79;28515;-80
2022/03/21 17:53:29;;;;;;;16.80;8.10;;;;;;;14.14;24.52;101148.55;4377287;79;28536;-83
2022/03/21 17:59:30;;;;;;;18.45;7.83;;;;;;;13.85;25.08;101150.52;4390150;79;28582;-80
2022/03/21 18:05:32;;;;;;;19.48;8.23;;;;;;;13.88;25.20;101150.95;4402880;80;28654;-82
2022/03/21 18:11:34;;;;;;;18.52;7.90;;;;;;;13.52;25.44;101160.95;4396392;80;28457;-87
2022/03/21 18:17:37;;;;;;;14.98;7.90;;;;;;;13.47;25.71;101166.13;4388907;80;28532;-83
2022/03/21 18:23:38;;;;;;;16.85;7.90;;;;;;;13.23;25.79;101174.98;4389076;80;28471;-81
2022/03/21 18:29:41;;;;;;;16.52;8.08;;;;;;;12.86;26.35;101171.55;4408294;80;28516;-81
2022/03/21 18:35:42;;;;;;;18.85;8.38;;;;;;;12.85;26.19;101178.48;4394295;79;28497;-84
2022/03/21 18:41:44;;;;;;;19.05;9.00;;;;;;;12.49;26.65;101179.70;4386729;80;28492;-84
2022/03/21 18:47:46;;;;;;;18.25;8.85;;;;;;;12.12;27.08;101178.34;4395371;80;28463;-82
2022/03/21 18:53:48;;;;;;;18.23;8.83;;;;;;;12.14;27.02;101180.87;4401519;80;28491;-82
2022/03/21 18:59:50;;;;;;;23.07;9.10;;;;;;;11.94;27.17;101183.27;4392096;80;28608;-82
2022/03/21 19:05:53;;;;;;;24.43;9.90;;;;;;;11.92;27.23;101182.63;4373035;79;28529;-81
2022/03/21 19:11:54;;;;;;;27.60;13.30;;;;;;;11.63;27.77;101198.61;4391501;79;28489;-80
2022/03/21 19:17:56;;;;;;;29.10;14.80;;;;;;;11.78;27.80;101191.88;4396475;79;28531;-81
2022/03/21 19:23:57;;;;;;;31.05;14.38;;;;;;;11.64;27.96;101192.70;4382119;79;28499;-79
2022/03/21 19:29:58;;;;;;;32.88;15.70;;;;;;;11.52;28.28;101197.73;4383489;80;28517;-81
2022/03/21 19:36:01;;;;;;;35.83;17.10;;;;;;;11.48;28.18;101207.17;4377288;79;28503;-79
2022/03/21 19:42:02;;;;;;;35.08;15.93;;;;;;;11.56;28.05;101213.34;4451480;78;28486;-80
2022/03/21 19:48:06;;;;;;;37.38;17.48;;;;;;;11.39;28.56;101213.98;4374983;80;28477;-81
2022/03/21 19:54:07;;;;;;;36.30;17.57;;;;;;;11.31;28.58;101223.51;4366468;80;28504;-81
2022/03/21 20:00:11;;;;;;;39.38;18.32;;;;;;;11.46;28.30;101220.84;4353101;81;28474;-80
2022/03/21 20:06:14;;;;;;;39.63;17.87;;;;;;;11.27;28.64;101226.22;4339196;82;28518;-84
2022/03/21 20:12:16;;;;;;;40.60;19.10;;;;;;;11.15;28.54;101224.49;4318146;82;28454;-83
2022/03/21 20:18:17;;;;;;;35.25;17.23;;;;;;;11.09;28.46;101222.02;4329937;82;28485;-84
2022/03/21 20:24:20;;;;;;;35.38;16.62;;;;;;;11.10;28.45;101229.07;4348135;81;28500;-88
2022/03/21 20:30:21;;;;;;;42.33;18.55;;;;;;;10.91;29.42;101226.86;4337202;81;28518;-84
2022/03/21 20:36:23;;;;;;;39.18;18.30;;;;;;;10.65;29.35;101225.34;4353783;81;28445;-79
2022/03/21 20:42:24;;;;;;;34.67;15.90;;;;;;;10.58;29.67;101228.75;4440086;78;28498;-83
2022/03/21 20:48:26;;;;;;;35.00;15.75;;;;;;;10.39;30.22;101226.47;4442696;80;28502;-78
2022/03/21 20:54:28;;;;;;;33.02;15.20;;;;;;;10.06;30.90;101232.00;4428984;79;28569;-80
2022/03/21 21:00:32;;;;;;;41.50;16.80;;;;;;;9.87;31.78;101230.03;4442471;79;28529;-79
2022/03/21 21:06:33;;;;;;;35.03;17.23;;;;;;;9.66;31.66;101238.64;4435611;79;28611;-77
2022/03/21 21:12:36;;;;;;;41.25;18.02;;;;;;;9.48;31.70;101238.34;4362882;80;28501;-84
2022/03/21 21:18:37;;;;;;;37.13;17.85;;;;;;;9.50;31.53;101234.98;4349976;80;28544;-84
2022/03/21 21:24:39;;;;;;;35.25;17.50;;;;;;;9.29;31.93;101239.03;4369748;80;28551;-84
2022/03/21 21:30:41;;;;;;;37.90;18.27;;;;;;;9.31;31.99;101236.16;4373087;81;28478;-80
2022/03/21 21:36:43;;;;;;;38.42;18.02;;;;;;;9.27;32.20;101232.99;4444022;80;28557;-83
2022/03/21 21:42:45;;;;;;;43.63;19.70;;;;;;;9.17;32.08;101233.66;4439274;80;28546;-85
2022/03/21 21:48:47;;;;;;;47.83;20.62;;;;;;;9.28;31.49;101229.30;4367369;81;28493;-80
2022/03/21 21:54:48;;;;;;;40.08;17.60;;;;;;;9.13;32.36;101230.96;4361987;81;28544;-81
2022/03/21 22:00:49;;;;;;;39.15;18.12;;;;;;;9.02;33.04;101223.58;4360447;80;28481;-80
2022/03/21 22:06:51;;;;;;;42.00;17.35;;;;;;;9.02;32.72;101218.21;4368220;81;28452;-78
2022/03/21 22:12:55;;;;;;;33.08;16.05;;;;;;;8.73;33.08;101218.17;4412047;80;28498;-78
2022/03/21 22:18:56;;;;;;;37.17;16.15;;;;;;;8.60;33.38;101216.00;4373652;81;28501;-78
2022/03/21 22:24:57;;;;;;;37.80;16.32;;;;;;;8.49;33.10;101218.44;4399263;81;28493;-77
2022/03/21 22:30:58;;;;;;;34.60;16.15;;;;;;;7.97;34.39;101216.76;4399169;81;28491;-77
2022/03/21 22:37:00;;;;;;;40.30;17.52;;;;;;;7.93;34.33;101212.70;4395981;81;28478;-78
2022/03/21 22:49:23;;;;;;;34.13;15.28;;;;;;;7.64;35.49;101216.07;4344883;81;28490;-79
2022/03/21 22:55:24;;;;;;;35.40;15.55;;;;;;;7.56;35.00;101216.02;4375543;81;28571;-78
2022/03/21 23:01:26;;;;;;;32.85;15.20;;;;;;;7.59;35.06;101213.53;4395720;80;28520;-78
2022/03/21 23:07:27;;;;;;;38.28;17.62;;;;;;;7.68;35.00;101213.92;4369945;81;28518;-78
2022/03/21 23:13:29;;;;;;;41.77;17.73;;;;;;;7.35;36.11;101218.55;4346425;81;28496;-78
2022/03/21 23:19:31;;;;;;;37.10;17.12;;;;;;;7.51;35.47;101216.48;4389517;81;28477;-78
2022/03/21 23:25:33;;;;;;;39.23;17.95;;;;;;;7.41;36.38;101213.06;4444043;80;28496;-78
2022/03/21 23:31:34;;;;;;;39.30;18.23;;;;;;;7.11;36.57;101214.70;4385131;80;28505;-77
2022/03/21 23:37:37;;;;;;;43.63;19.30;;;;;;;7.08;36.70;101206.98;4382732;80;28705;-78
2022/03/21 23:43:39;;;;;;;39.48;19.30;;;;;;;7.28;36.15;101205.95;4373457;81;28503;-76
2022/03/21 23:49:40;;;;;;;47.13;20.37;;;;;;;7.25;37.00;101209.29;4367686;80;28484;-76
2022/03/21 23:55:44;;;;;;;46.58;21.27;;;;;;;7.16;37.00;101212.04;4378922;81;28508;-77
